Time;durP1;ratioP1;P1;durP2;ratioP2;P2;SDS_P1;SDS_P2;PMS_P1;PMS_P2;Temp;Humidity;BMP_temperature;BMP_pressure;BME280_temperature;BME280_humidity;BME280_pressure;Samples;Min_cycle;Max_cycle;Signal;HPM_P1;HPM_P2
2023/07/25 00:01:01;;;;;;;20.00;13.23;;;15.80;99.90;;;;;;5028315;28;20504;-78
2023/07/25 00:03:27;;;;;;;16.95;11.93;;;15.80;99.90;;;;;;5048197;28;20140;-80
2023/07/25 00:05:53;;;;;;;14.82;11.98;;;15.80;99.90;;;;;;5053035;28;20047;-79
2023/07/25 00:08:19;;;;;;;20.48;13.50;;;15.80;99.90;;;;;;5052964;28;20083;-79
2023/07/25 00:10:45;;;;;;;17.63;12.55;;;15.80;99.90;;;;;;5052696;28;20100;-81
2023/07/25 00:13:11;;;;;;;21.70;12.77;;;15.80;99.90;;;;;;5052763;28;20033;-79
2023/07/25 00:15:37;;;;;;;20.33;12.98;;;15.80;99.90;;;;;;5052643;28;20505;-81
2023/07/25 00:18:04;;;;;;;13.80;11.98;;;15.70;99.90;;;;;;5052953;28;20413;-80
2023/07/25 00:20:30;;;;;;;19.73;11.02;;;15.70;99.90;;;;;;5034697;28;20069;-79
2023/07/25 00:22:56;;;;;;;14.10;12.02;;;15.70;99.90;;;;;;5052694;28;20025;-80
2023/07/25 00:25:22;;;;;;;16.58;13.25;;;15.80;99.90;;;;;;5034862;28;20031;-79
2023/07/25 00:27:49;;;;;;;19.30;12.30;;;15.80;99.90;;;;;;5035105;28;20025;-79
2023/07/25 00:30:15;;;;;;;16.95;12.70;;;16.00;99.90;;;;;;5029667;28;20048;-79
2023/07/25 00:32:41;;;;;;;14.90;11.95;;;16.00;99.90;;;;;;5032584;28;20425;-80
2023/07/25 00:35:08;;;;;;;17.45;13.10;;;16.10;99.90;;;;;;5043514;28;20025;-79
2023/07/25 00:37:33;;;;;;;16.58;12.88;;;16.10;99.90;;;;;;5032801;28;20067;-79
2023/07/25 00:40:00;;;;;;;17.77;11.88;;;16.10;99.90;;;;;;5052297;28;20056;-79
2023/07/25 00:42:26;;;;;;;17.40;13.32;;;16.10;99.90;;;;;;5052195;28;20029;-78
2023/07/25 00:44:52;;;;;;;17.77;12.32;;;16.20;99.90;;;;;;5052231;28;20044;-78
2023/07/25 00:47:21;;;;;;;17.10;13.60;;;16.10;99.90;;;;;;5052522;28;20485;-81
2023/07/25 00:49:47;;;;;;;17.58;13.88;;;16.10;99.90;;;;;;5051777;28;20021;-79
2023/07/25 00:52:13;;;;;;;15.15;13.13;;;16.10;99.90;;;;;;5052405;28;20025;-79
2023/07/25 00:54:45;;;;;;;15.00;11.88;;;16.10;99.90;;;;;;5052347;28;20125;-78
2023/07/25 00:57:11;;;;;;;20.55;13.30;;;16.10;99.90;;;;;;5052715;28;20017;-79
2023/07/25 00:59:38;;;;;;;16.33;13.40;;;16.10;99.90;;;;;;5053991;28;20025;-79
2023/07/25 01:02:04;;;;;;;14.00;12.50;;;16.10;99.90;;;;;;5041268;28;20047;-79
2023/07/25 01:04:31;;;;;;;17.95;13.80;;;16.10;99.90;;;;;;5036503;28;20498;-80
2023/07/25 01:06:57;;;;;;;22.02;14.00;;;16.10;99.90;;;;;;5034502;28;20029;-78
2023/07/25 01:09:41;;;;;;;21.33;13.48;;;16.00;99.90;;;;;;5052374;28;20021;-78
2023/07/25 01:12:09;;;;;;;20.17;14.35;;;16.00;99.90;;;;;;5054451;28;20035;-80
2023/07/25 01:14:36;;;;;;;13.98;11.57;;;16.00;99.90;;;;;;5052778;28;20063;-79
2023/07/25 01:17:10;;;;;;;15.48;12.38;;;16.00;99.90;;;;;;5052035;28;20031;-79
2023/07/25 01:19:39;;;;;;;15.75;13.60;;;16.00;99.90;;;;;;5052041;28;20014;-78
2023/07/25 01:22:06;;;;;;;15.00;12.38;;;16.00;99.90;;;;;;5033696;28;20426;-80
2023/07/25 01:24:33;;;;;;;19.80;12.48;;;16.00;99.90;;;;;;5034264;28;20037;-79
2023/07/25 01:26:59;;;;;;;22.88;13.70;;;16.00;99.90;;;;;;5052103;28;20029;-78
2023/07/25 01:29:25;;;;;;;18.85;13.18;;;16.00;99.90;;;;;;5028891;28;20487;-80
2023/07/25 01:31:51;;;;;;;18.25;12.18;;;16.10;99.90;;;;;;5045949;28;20513;-78
2023/07/25 01:34:17;;;;;;;15.45;12.88;;;16.10;99.90;;;;;;5050079;28;20028;-79
2023/07/25 01:36:42;;;;;;;17.02;11.57;;;16.20;99.90;;;;;;5021770;28;20486;-79
2023/07/25 01:39:08;;;;;;;14.82;12.32;;;16.20;99.90;;;;;;5027639;28;20095;-78
2023/07/25 01:41:34;;;;;;;13.60;10.60;;;16.30;99.90;;;;;;5033642;28;20033;-77
2023/07/25 01:44:00;;;;;;;14.77;12.10;;;16.20;99.90;;;;;;5051397;28;20029;-79
2023/07/25 01:46:26;;;;;;;14.30;10.32;;;16.30;99.90;;;;;;5033721;28;20017;-79
2023/07/25 01:48:52;;;;;;;12.20;10.98;;;16.30;99.90;;;;;;5051567;28;20029;-80
2023/07/25 01:51:17;;;;;;;14.13;11.50;;;16.40;99.90;;;;;;5033483;28;20036;-79
2023/07/25 01:53:43;;;;;;;12.10;10.55;;;16.40;99.90;;;;;;5033603;28;20048;-80
2023/07/25 01:56:09;;;;;;;12.38;10.27;;;16.40;99.90;;;;;;5051392;28;20017;-79
2023/07/25 01:58:35;;;;;;;14.10;11.40;;;16.40;99.90;;;;;;5033646;28;20021;-79
2023/07/25 02:01:01;;;;;;;13.57;10.98;;;16.50;99.90;;;;;;5053973;28;20028;-80
2023/07/25 02:03:28;;;;;;;14.65;10.52;;;16.50;99.90;;;;;;5056793;28;20564;-80
2023/07/25 02:05:53;;;;;;;11.07;9.20;;;16.60;99.90;;;;;;5038816;28;20025;-80
2023/07/25 02:08:19;;;;;;;13.05;9.32;;;16.60;99.90;;;;;;5056438;28;20025;-79
2023/07/25 02:10:45;;;;;;;11.30;10.15;;;16.60;99.90;;;;;;5055111;28;20093;-79
2023/07/25 02:13:11;;;;;;;10.85;9.63;;;16.60;99.90;;;;;;5055013;28;20024;-81
2023/07/25 02:15:37;;;;;;;14.43;10.10;;;16.60;99.90;;;;;;5055354;28;20029;-79
2023/07/25 02:18:03;;;;;;;12.35;11.07;;;16.60;99.90;;;;;;5044032;28;20033;-78
2023/07/25 02:20:33;;;;;;;15.60;11.48;;;16.60;99.90;;;;;;5053141;28;20013;-78
2023/07/25 02:22:59;;;;;;;13.75;12.20;;;16.60;99.90;;;;;;5055219;28;20030;-78
2023/07/25 02:25:26;;;;;;;20.15;13.73;;;16.50;99.90;;;;;;5037110;28;20021;-79
2023/07/25 02:27:52;;;;;;;18.35;14.23;;;16.40;99.90;;;;;;5036934;28;20128;-81
2023/07/25 02:30:18;;;;;;;15.60;14.00;;;16.40;99.90;;;;;;5043332;28;20030;-78
2023/07/25 02:32:44;;;;;;;16.13;14.30;;;16.30;99.90;;;;;;5054596;28;20075;-78
2023/07/25 02:35:09;;;;;;;17.48;13.73;;;16.40;99.90;;;;;;5028078;28;20026;-79
2023/07/25 02:37:35;;;;;;;20.33;14.52;;;16.40;99.90;;;;;;5031594;28;20107;-78
2023/07/25 02:40:02;;;;;;;16.83;14.30;;;16.30;99.90;;;;;;5054630;28;20064;-79
2023/07/25 02:42:27;;;;;;;37.85;16.80;;;16.30;99.90;;;;;;5057198;28;20052;-79
2023/07/25 02:44:53;;;;;;;18.00;12.65;;;16.20;99.90;;;;;;5037866;28;20020;-78
2023/07/25 02:47:20;;;;;;;17.83;13.20;;;16.10;99.90;;;;;;5054992;28;20103;-77
2023/07/25 02:49:45;;;;;;;19.92;14.90;;;16.00;99.90;;;;;;5039659;28;20021;-79
2023/07/25 02:52:11;;;;;;;17.50;14.95;;;15.90;99.90;;;;;;5058033;28;20029;-77
2023/07/25 02:54:37;;;;;;;21.38;15.73;;;15.80;99.90;;;;;;5036763;28;20144;-78
2023/07/25 02:57:03;;;;;;;19.90;16.13;;;15.80;99.90;;;;;;5054467;28;20379;-78
2023/07/25 02:59:29;;;;;;;19.77;17.15;;;15.80;99.90;;;;;;5054399;28;20082;-79
2023/07/25 03:01:55;;;;;;;16.80;14.52;;;15.90;99.90;;;;;;5054184;28;20428;-77
2023/07/25 03:04:21;;;;;;;18.27;15.20;;;16.00;99.90;;;;;;5054095;28;20128;-79
2023/07/25 03:06:47;;;;;;;17.33;12.00;;;16.00;99.90;;;;;;5027613;28;20398;-77
2023/07/25 03:09:13;;;;;;;11.95;10.75;;;16.10;99.90;;;;;;5053973;28;20178;-78
2023/07/25 03:11:38;;;;;;;15.25;13.15;;;16.10;99.90;;;;;;5035492;28;20445;-79
2023/07/25 03:14:04;;;;;;;13.40;12.00;;;16.00;99.90;;;;;;5053957;28;20017;-80
2023/07/25 03:16:30;;;;;;;13.13;11.80;;;16.00;99.90;;;;;;5054121;28;20471;-78
2023/07/25 03:18:56;;;;;;;12.05;10.80;;;16.00;99.90;;;;;;5053687;28;20017;-76
2023/07/25 03:21:22;;;;;;;15.05;13.13;;;15.90;99.90;;;;;;5053642;28;20029;-80
2023/07/25 03:23:48;;;;;;;13.90;10.27;;;15.90;99.90;;;;;;5053454;28;20479;-77
2023/07/25 03:26:14;;;;;;;13.20;11.90;;;15.90;99.90;;;;;;5035478;28;20025;-78
2023/07/25 03:28:40;;;;;;;12.77;11.23;;;15.80;99.90;;;;;;5053817;28;20424;-79
2023/07/25 03:31:06;;;;;;;14.32;11.63;;;15.90;99.90;;;;;;5053541;28;20013;-79
2023/07/25 03:33:32;;;;;;;14.93;12.10;;;15.90;99.90;;;;;;5035534;28;20071;-77
2023/07/25 03:35:58;;;;;;;13.18;11.65;;;16.00;99.90;;;;;;5053419;28;20037;-79
2023/07/25 03:38:24;;;;;;;13.85;11.60;;;16.00;99.90;;;;;;5053936;28;20100;-80
2023/07/25 03:40:50;;;;;;;14.00;12.23;;;15.90;99.90;;;;;;5035857;28;20491;-80
2023/07/25 03:43:16;;;;;;;14.75;12.57;;;15.80;99.90;;;;;;5053953;28;20033;-79
2023/07/25 03:45:41;;;;;;;14.95;13.32;;;15.80;99.90;;;;;;5035824;28;20098;-78
2023/07/25 03:48:09;;;;;;;16.92;14.02;;;15.80;99.90;;;;;;5035296;28;20062;-79
2023/07/25 03:50:34;;;;;;;23.55;13.52;;;15.80;99.90;;;;;;5053201;28;20104;-80
2023/07/25 03:53:05;;;;;;;16.17;14.25;;;15.80;99.90;;;;;;5053052;28;20517;-80
2023/07/25 03:55:31;;;;;;;16.77;13.82;;;15.90;99.90;;;;;;5053022;28;20024;-79
2023/07/25 03:57:57;;;;;;;16.50;14.35;;;15.80;99.90;;;;;;5052743;28;20104;-78
2023/07/25 04:00:23;;;;;;;20.20;15.85;;;15.90;99.90;;;;;;5053215;28;20037;-78
2023/07/25 04:02:49;;;;;;;18.67;15.00;;;15.90;99.90;;;;;;5053309;28;20049;-79
2023/07/25 04:05:15;;;;;;;16.73;15.00;;;16.00;99.90;;;;;;5053390;28;20017;-80
2023/07/25 04:07:43;;;;;;;16.25;14.20;;;16.10;99.90;;;;;;5053940;28;20033;-79
2023/07/25 04:10:10;;;;;;;16.27;14.40;;;16.20;99.90;;;;;;5036255;28;20012;-78
2023/07/25 04:12:35;;;;;;;16.48;14.40;;;16.30;99.90;;;;;;5037659;28;20028;-78
2023/07/25 04:15:01;;;;;;;17.70;15.68;;;16.30;99.90;;;;;;5035339;28;20556;-79
2023/07/25 04:17:27;;;;;;;18.85;14.73;;;16.60;99.90;;;;;;5034981;28;20029;-80
2023/07/25 04:19:53;;;;;;;18.58;16.67;;;16.90;99.90;;;;;;5052581;28;20112;-78
2023/07/25 04:22:19;;;;;;;18.08;14.88;;;17.30;99.90;;;;;;5034140;28;20106;-79
2023/07/25 04:24:45;;;;;;;16.65;14.90;;;17.60;99.90;;;;;;5051756;28;20017;-79
2023/07/25 04:27:11;;;;;;;18.02;16.10;;;17.80;99.90;;;;;;5034801;28;20089;-78
2023/07/25 04:29:36;;;;;;;17.30;13.93;;;17.80;99.90;;;;;;5052581;28;20104;-77
2023/07/25 04:32:02;;;;;;;17.20;15.43;;;17.90;99.90;;;;;;5035045;28;20040;-78
2023/07/25 04:34:28;;;;;;;17.90;14.80;;;17.80;99.90;;;;;;5050391;28;20547;-78
2023/07/25 04:36:54;;;;;;;15.88;13.93;;;17.70;99.90;;;;;;5042971;28;20032;-78
2023/07/25 04:39:20;;;;;;;17.73;15.80;;;17.70;99.90;;;;;;5053874;28;20048;-77
2023/07/25 04:41:45;;;;;;;17.55;15.05;;;17.90;99.90;;;;;;5053688;28;20033;-78
2023/07/25 04:44:11;;;;;;;16.83;15.07;;;18.30;99.90;;;;;;5053056;28;20036;-80
2023/07/25 04:46:37;;;;;;;17.73;14.95;;;18.60;99.90;;;;;;5052553;28;20020;-79
2023/07/25 04:49:05;;;;;;;15.98;14.32;;;18.90;99.90;;;;;;5052485;28;20032;-79
2023/07/25 04:51:31;;;;;;;17.88;15.45;;;19.20;99.90;;;;;;5029873;28;20389;-79
2023/07/25 04:53:57;;;;;;;13.60;12.27;;;19.30;99.90;;;;;;5064812;28;20020;-79
2023/07/25 04:56:23;;;;;;;13.60;12.23;;;19.40;99.90;;;;;;5056543;28;20036;-79
2023/07/25 04:58:48;;;;;;;13.52;12.10;;;19.50;99.90;;;;;;5064492;28;20027;-79
2023/07/25 05:01:14;;;;;;;12.52;10.02;;;19.50;99.90;;;;;;5044477;28;20030;-79
2023/07/25 05:03:40;;;;;;;11.93;10.57;;;19.70;99.90;;;;;;5051387;28;20067;-78
2023/07/25 05:06:06;;;;;;;13.05;10.63;;;19.60;99.90;;;;;;5030841;28;20020;-78
2023/07/25 05:08:32;;;;;;;13.07;11.18;;;19.70;99.90;;;;;;5033719;28;20187;-79
2023/07/25 05:11:00;;;;;;;12.52;11.32;;;19.60;99.90;;;;;;5026199;28;20021;-80
2023/07/25 05:13:26;;;;;;;10.57;9.55;;;20.10;99.90;;;;;;5046542;28;20018;-80
2023/07/25 05:15:52;;;;;;;11.00;10.00;;;21.00;99.90;;;;;;5040261;28;20056;-80
2023/07/25 05:18:18;;;;;;;13.10;11.55;;;21.40;99.90;;;;;;5035991;28;20040;-80
2023/07/25 05:20:44;;;;;;;11.38;9.93;;;21.90;99.90;;;;;;5036031;28;20025;-80
2023/07/25 05:23:10;;;;;;;10.57;9.50;;;22.60;98.80;;;;;;5015849;28;20040;-80
2023/07/25 05:25:35;;;;;;;10.57;9.45;;;23.30;96.40;;;;;;5024360;28;20024;-78
2023/07/25 05:28:01;;;;;;;12.95;9.98;;;23.60;94.60;;;;;;5072018;28;20483;-79
2023/07/25 05:30:27;;;;;;;11.00;9.50;;;23.70;94.30;;;;;;5053244;28;20766;-81
2023/07/25 05:32:53;;;;;;;11.38;10.20;;;23.90;93.90;;;;;;5062922;28;20482;-80
2023/07/25 05:35:19;;;;;;;11.23;9.98;;;24.30;92.40;;;;;;5048010;28;20474;-80
2023/07/25 05:37:45;;;;;;;12.00;10.85;;;24.50;92.10;;;;;;5042094;28;20052;-78
2023/07/25 05:40:11;;;;;;;12.30;10.65;;;24.80;90.50;;;;;;5060873;28;20386;-79
2023/07/25 05:42:37;;;;;;;11.95;10.75;;;24.70;89.90;;;;;;5052787;28;20056;-79
2023/07/25 05:45:03;;;;;;;15.57;10.85;;;23.80;90.00;;;;;;5063019;28;20084;-79
2023/07/25 05:47:29;;;;;;;11.90;10.70;;;23.00;91.80;;;;;;5019024;28;20153;-82
2023/07/25 05:49:56;;;;;;;12.40;11.18;;;22.60;92.60;;;;;;5034827;28;20055;-78
2023/07/25 05:52:22;;;;;;;14.32;11.02;;;22.20;93.40;;;;;;5045093;28;20441;-80
2023/07/25 05:54:52;;;;;;;13.43;11.82;;;21.80;94.10;;;;;;5044949;28;20029;-80
2023/07/25 05:57:18;;;;;;;14.25;12.80;;;21.40;94.70;;;;;;5040446;28;20022;-81
2023/07/25 05:59:44;;;;;;;13.35;11.95;;;21.00;95.70;;;;;;5042426;28;20324;-79
2023/07/25 06:02:11;;;;;;;14.32;12.07;;;20.70;96.40;;;;;;5072417;28;20036;-79
2023/07/25 06:04:37;;;;;;;14.13;12.65;;;20.70;97.00;;;;;;5040158;28;20184;-80
2023/07/25 06:07:04;;;;;;;17.10;12.65;;;20.90;97.00;;;;;;5033835;28;20498;-80
2023/07/25 06:09:29;;;;;;;13.70;10.18;;;21.70;96.90;;;;;;5046964;28;20557;-80
2023/07/25 06:11:55;;;;;;;13.13;10.88;;;23.40;94.30;;;;;;5039353;28;20100;-80
2023/07/25 06:14:21;;;;;;;14.43;11.60;;;25.00;90.20;;;;;;5039391;28;20030;-81
2023/07/25 06:16:47;;;;;;;11.48;10.27;;;25.70;87.60;;;;;;5030852;28;20056;-80
2023/07/25 06:19:13;;;;;;;15.63;11.55;;;26.80;83.60;;;;;;5045227;28;20556;-80
2023/07/25 06:21:39;;;;;;;11.77;10.38;;;27.20;80.30;;;;;;5021856;28;20076;-81
2023/07/25 06:24:05;;;;;;;10.48;9.40;;;27.10;78.60;;;;;;5055481;28;20083;-80
2023/07/25 06:26:31;;;;;;;13.63;12.23;;;27.20;78.50;;;;;;5037675;28;20487;-80
2023/07/25 06:28:57;;;;;;;12.20;10.90;;;27.70;76.10;;;;;;5043194;28;20025;-81
2023/07/25 06:31:23;;;;;;;12.25;10.95;;;27.30;75.50;;;;;;5020446;28;20121;-80
2023/07/25 06:33:48;;;;;;;12.88;11.20;;;26.90;75.70;;;;;;5040307;28;20061;-81
2023/07/25 06:36:14;;;;;;;11.25;9.93;;;26.30;77.70;;;;;;5039474;28;20047;-81
2023/07/25 06:38:40;;;;;;;10.40;9.35;;;26.40;78.40;;;;;;5037111;28;20021;-82
2023/07/25 06:41:06;;;;;;;9.20;8.32;;;27.80;76.40;;;;;;5055207;28;20162;-82
2023/07/25 06:43:32;;;;;;;10.85;9.60;;;29.20;70.50;;;;;;5049102;28;20176;-81
2023/07/25 06:45:59;;;;;;;10.65;9.40;;;28.80;68.70;;;;;;5048134;28;20033;-84
2023/07/25 06:48:25;;;;;;;11.10;9.20;;;28.70;69.50;;;;;;5055119;28;20099;-82
2023/07/25 06:50:50;;;;;;;12.13;8.20;;;28.90;69.10;;;;;;5055088;28;20054;-81
2023/07/25 06:53:16;;;;;;;9.32;8.32;;;29.70;66.90;;;;;;5054749;28;20029;-82
2023/07/25 06:55:42;;;;;;;9.17;7.87;;;30.90;64.40;;;;;;5054748;28;20039;-80
2023/07/25 06:58:08;;;;;;;9.53;8.63;;;32.10;61.80;;;;;;5036500;28;20060;-81
2023/07/25 07:00:37;;;;;;;11.03;8.07;;;33.00;59.40;;;;;;5034617;28;20025;-82
2023/07/25 07:03:04;;;;;;;10.05;9.05;;;34.40;57.00;;;;;;5037860;28;20072;-82
2023/07/25 07:05:31;;;;;;;7.78;6.47;;;35.80;53.80;;;;;;5056546;28;20017;-81
2023/07/25 07:08:00;;;;;;;7.45;5.72;;;36.50;50.60;;;;;;5055696;28;20505;-82
2023/07/25 07:10:32;;;;;;;6.60;6.00;;;36.70;48.40;;;;;;5056275;28;20098;-83
2023/07/25 07:12:57;;;;;;;7.40;6.70;;;36.80;48.70;;;;;;5056872;28;20036;-83
2023/07/25 07:15:26;;;;;;;7.82;6.40;;;36.70;47.10;;;;;;5036751;28;20043;-83
2023/07/25 07:17:52;;;;;;;7.53;6.60;;;35.80;48.80;;;;;;5035997;28;20405;-83
2023/07/25 07:20:18;;;;;;;10.02;6.65;;;35.50;49.20;;;;;;5054357;28;20035;-83
2023/07/25 07:22:45;;;;;;;9.63;6.80;;;36.30;48.50;;;;;;5054068;28;20475;-82
2023/07/25 07:25:11;;;;;;;7.55;6.80;;;;;;;;;;5054098;28;20159;-82
2023/07/25 07:27:37;;;;;;;7.90;7.10;;;37.50;72.20;;;;;;5054362;28;20021;-82
2023/07/25 07:30:03;;;;;;;12.45;6.82;;;37.50;46.20;;;;;;5054879;28;20043;-83
2023/07/25 07:32:29;;;;;;;7.57;6.10;;;38.30;45.00;;;;;;5058954;28;20028;-83
2023/07/25 07:34:58;;;;;;;9.68;6.65;;;39.00;48.20;;;;;;5064128;28;20029;-83
2023/07/25 07:37:24;;;;;;;9.60;6.93;;;39.70;44.40;;;;;;5038684;28;20064;-81
2023/07/25 07:39:49;;;;;;;6.45;5.80;;;40.10;41.70;;;;;;5023069;28;20028;-83
2023/07/25 07:42:15;;;;;;;6.50;5.63;;;39.00;42.20;;;;;;5055407;28;20095;-84
2023/07/25 07:44:41;;;;;;;16.25;7.28;;;38.50;43.30;;;;;;5055328;28;20017;-82
2023/07/25 07:47:07;;;;;;;7.05;5.95;;;38.90;43.30;;;;;;5047590;28;20025;-82
2023/07/25 07:49:34;;;;;;;6.05;5.45;;;38.90;41.50;;;;;;5049105;28;20025;-82
2023/07/25 07:51:59;;;;;;;8.85;6.57;;;38.00;41.90;;;;;;5052814;28;20460;-83
2023/07/25 07:54:25;;;;;;;13.30;7.78;;;36.20;43.40;;;;;;5054341;28;20108;-84
2023/07/25 07:56:54;;;;;;;8.10;6.37;;;34.60;44.90;;;;;;5035708;28;20115;-84
2023/07/25 07:59:20;;;;;;;9.30;5.72;;;;;;;;;;5035628;28;20044;-82
2023/07/25 08:01:46;;;;;;;8.40;6.30;;;;;;;;;;5035082;28;20551;-82
2023/07/25 08:04:13;;;;;;;9.43;5.85;;;;;;;;;;5053493;28;20063;-82
2023/07/25 08:06:38;;;;;;;8.15;5.22;;;33.00;48.10;;;;;;5036972;28;20121;-84
2023/07/25 08:09:04;;;;;;;6.53;5.25;;;37.80;43.50;;;;;;5035213;28;20071;-82
2023/07/25 08:11:30;;;;;;;7.00;5.30;;;39.20;42.40;;;;;;5036360;28;20116;-83
2023/07/25 08:13:57;;;;;;;6.65;4.38;;;;;;;;;;5041852;28;20021;-83
2023/07/25 08:16:23;;;;;;;6.97;6.07;;;;;;;;;;5059682;28;20025;-81
2023/07/25 08:18:49;;;;;;;5.90;5.30;;;39.90;40.90;;;;;;5054870;28;20021;-82
2023/07/25 08:21:15;;;;;;;5.47;4.75;;;40.50;38.90;;;;;;5038774;28;20467;-83
2023/07/25 08:23:41;;;;;;;7.13;4.60;;;40.20;39.00;;;;;;5057654;28;20025;-84
2023/07/25 08:26:07;;;;;;;5.75;4.80;;;40.00;38.90;;;;;;5052961;28;20032;-82
2023/07/25 08:28:32;;;;;;;5.63;5.13;;;40.00;39.30;;;;;;5053355;28;20029;-84
2023/07/25 08:30:59;;;;;;;7.03;6.32;;;40.20;38.90;;;;;;5053161;28;20028;-83
2023/07/25 08:33:26;;;;;;;6.28;5.68;;;;;;;;;;5052954;28;20032;-84
2023/07/25 08:35:54;;;;;;;5.35;4.85;;;;;;;;;;5054134;28;20030;-84
2023/07/25 08:38:20;;;;;;;7.20;4.55;;;;;;;;;;5062719;28;20438;-80
2023/07/25 08:40:46;;;;;;;;;;;;;;;;;;5066639;28;20043;-82
2023/07/25 08:43:13;;;;;;;7.00;5.15;;;40.60;38.50;;;;;;5055694;28;19913;-82
2023/07/25 08:45:42;;;;;;;6.70;4.95;;;38.90;39.20;;;;;;5035117;28;20091;-82
2023/07/25 08:48:12;;;;;;;6.93;5.15;;;38.30;39.90;;;;;;5052351;28;20055;-82
2023/07/25 08:50:40;;;;;;;9.90;5.43;;;38.30;40.40;;;;;;5052422;28;20013;-81
2023/07/25 08:53:10;;;;;;;10.07;5.90;;;38.60;40.30;;;;;;5052229;28;20040;-83
2023/07/25 08:55:36;;;;;;;7.35;5.38;;;38.80;40.80;;;;;;5052680;28;20025;-83
2023/07/25 08:58:05;;;;;;;;;;;39.20;39.80;;;;;;5052836;28;20021;-83
2023/07/25 09:00:31;;;;;;;13.45;8.10;;;39.00;40.80;;;;;;5052209;28;19905;-82
2023/07/25 09:02:57;;;;;;;;;;;38.70;40.00;;;;;;5052765;28;20049;-83
2023/07/25 09:05:24;;;;;;;7.40;5.28;;;38.40;40.70;;;;;;5039519;28;19913;-82
2023/07/25 09:07:50;;;;;;;8.13;5.13;;;37.80;40.00;;;;;;5053590;28;20045;-82
2023/07/25 09:10:16;;;;;;;7.05;5.22;;;37.60;40.40;;;;;;5034825;28;20021;-83
2023/07/25 09:12:42;;;;;;;9.65;6.18;;;37.50;40.50;;;;;;5053027;28;20490;-83
2023/07/25 09:15:08;;;;;;;9.02;5.03;;;38.10;41.90;;;;;;5032878;28;20025;-81
2023/07/25 09:17:34;;;;;;;7.45;4.32;;;39.30;39.90;;;;;;5042758;28;20028;-81
2023/07/25 09:20:01;;;;;;;9.10;5.20;;;39.20;39.10;;;;;;5038630;28;20125;-83
2023/07/25 09:22:31;;;;;;;6.75;5.22;;;38.20;39.40;;;;;;5056576;28;20482;-81
2023/07/25 09:24:58;;;;;;;5.50;4.88;;;37.70;40.10;;;;;;5060115;28;20059;-82
2023/07/25 09:27:25;;;;;;;7.15;5.40;;;37.80;40.80;;;;;;5042735;28;20084;-83
2023/07/25 09:29:52;;;;;;;6.95;4.88;;;;;;;;;;5042649;28;20029;-82
2023/07/25 09:32:25;;;;;;;7.70;5.20;;;37.70;40.50;;;;;;5042627;28;20056;-83
2023/07/25 09:34:58;;;;;;;5.65;4.50;;;37.70;40.20;;;;;;5028867;28;20037;-83
2023/07/25 09:37:24;;;;;;;8.32;4.95;;;37.40;40.50;;;;;;5045757;28;20025;-83
2023/07/25 09:39:50;;;;;;;7.88;5.22;;;;;;;;;;5034273;28;20021;-82
2023/07/25 09:42:16;;;;;;;6.00;5.13;;;;;;;;;;5034853;28;20223;-85
2023/07/25 09:44:50;;;;;;;6.05;5.45;;;37.40;40.80;;;;;;5033845;28;20025;-82
2023/07/25 09:47:26;;;;;;;7.25;5.18;;;36.70;41.70;;;;;;5051700;28;20028;-82
2023/07/25 09:49:55;;;;;;;8.40;5.65;;;36.00;41.60;;;;;;5033459;28;20106;-83
2023/07/25 09:52:22;;;;;;;10.35;6.10;;;35.50;43.00;;;;;;5051945;28;20040;-84
2023/07/25 09:54:49;;;;;;;7.75;5.45;;;35.10;43.60;;;;;;5033965;28;20025;-82
2023/07/25 09:57:16;;;;;;;8.30;4.55;;;35.00;43.80;;;;;;5053140;28;20033;-82
2023/07/25 09:59:42;;;;;;;7.97;5.68;;;;;;;;;;5034452;28;20112;-82
2023/07/25 10:02:09;;;;;;;7.72;5.20;;;;;;;;;;5063957;28;20044;-82
2023/07/25 10:04:38;;;;;;;6.80;4.85;;;35.20;43.70;;;;;;5055387;28;20029;-84
2023/07/25 10:07:07;;;;;;;7.28;5.18;;;37.10;42.10;;;;;;5034378;28;20021;-82
2023/07/25 10:09:34;;;;;;;7.75;6.53;;;37.90;40.90;;;;;;5053939;28;20029;-83
2023/07/25 10:12:03;;;;;;;5.88;4.78;;;38.60;40.60;;;;;;5055551;28;20025;-82
2023/07/25 10:14:29;;;;;;;7.15;5.68;;;38.30;39.30;;;;;;5052170;28;20021;-83
2023/07/25 10:16:57;;;;;;;8.70;6.90;;;37.10;40.50;;;;;;5051444;28;20040;-82
2023/07/25 10:19:23;;;;;;;6.95;5.70;;;36.80;41.60;;;;;;5052000;28;20350;-83
2023/07/25 10:21:51;;;;;;;9.02;5.65;;;37.10;41.20;;;;;;5053834;28;20030;-81
2023/07/25 10:24:21;;;;;;;9.55;5.90;;;37.10;40.80;;;;;;5056447;28;20052;-83
2023/07/25 10:26:57;;;;;;;6.80;5.07;;;;;;;;;;5056244;28;20029;-84
2023/07/25 10:29:23;;;;;;;;;;;;;;;;;;5060884;28;20033;-82
2023/07/25 10:31:52;;;;;;;7.50;5.72;;;;;;;;;;5061018;28;19915;-83
2023/07/25 10:34:18;;;;;;;8.40;6.15;;;;;;;;;;5054518;28;20029;-82
2023/07/25 10:36:44;;;;;;;8.00;6.03;;;36.30;40.90;;;;;;5043331;28;20351;-83
2023/07/25 10:39:25;;;;;;;7.90;5.60;;;34.30;43.50;;;;;;5052581;28;20059;-82
2023/07/25 10:41:54;;;;;;;9.85;6.28;;;33.10;44.80;;;;;;5054758;28;20017;-82
2023/07/25 10:44:38;;;;;;;8.07;6.03;;;32.00;47.60;;;;;;5054409;28;20099;-82
2023/07/25 10:47:42;;;;;;;7.90;7.10;;;31.00;48.10;;;;;;5054773;28;20096;-82
2023/07/25 10:50:08;;;;;;;8.93;6.43;;;30.30;50.40;;;;;;5055503;28;20032;-83
2023/07/25 10:52:44;;;;;;;9.73;8.10;;;29.70;51.40;;;;;;5054677;28;20082;-82
2023/07/25 10:55:11;;;;;;;9.77;6.80;;;29.30;51.90;;;;;;5053258;28;20024;-83
2023/07/25 10:57:37;;;;;;;8.45;7.07;;;29.00;52.60;;;;;;5055023;28;20548;-83
2023/07/25 11:00:08;;;;;;;8.20;6.53;;;28.40;53.00;;;;;;5054262;28;20025;-84
2023/07/25 11:02:42;;;;;;;7.10;6.40;;;;;;;;;;5054626;28;20370;-82
2023/07/25 11:05:29;;;;;;;6.97;5.60;;;;;;;;;;5037173;28;20033;-81
2023/07/25 11:07:55;;;;;;;;;;;;;;;;;;5040121;28;20573;-82
2023/07/25 11:10:23;;;;;;;11.13;7.05;;;;;;;;;;5055266;28;20049;-81
2023/07/25 11:12:50;;;;;;;9.90;7.65;;;;;;;;;;5032398;28;20034;-83
2023/07/25 11:15:16;;;;;;;;;;;;;;;;;;5051837;28;20074;-82
2023/07/25 11:17:42;;;;;;;11.00;7.13;;;;;;;;;;5054398;28;19995;-84
2023/07/25 11:20:16;;;;;;;7.83;6.83;;;;;;;;;;5036774;28;20033;-82
2023/07/25 11:22:43;;;;;;;9.27;6.75;;;;;;;;;;5061185;28;20265;-81
2023/07/25 11:25:09;;;;;;;12.05;7.03;;;;;;;;;;5063475;28;20021;-82
2023/07/25 11:27:41;;;;;;;9.48;7.55;;;;;;;;;;5057194;28;20017;-83
2023/07/25 11:30:11;;;;;;;13.77;8.13;;;;;;;;;;5053852;28;20037;-82
2023/07/25 11:32:38;;;;;;;8.27;6.50;;;;;;;;;;5035354;28;20483;-80
2023/07/25 11:35:05;;;;;;;8.25;6.93;;;;;;;;;;5038705;28;20029;-83
2023/07/25 11:37:32;;;;;;;9.55;6.65;;;;;;;;;;5049613;28;20050;-84
2023/07/25 11:40:09;;;;;;;11.18;6.57;;;;;;;;;;5063993;28;20395;-82
2023/07/25 11:42:36;;;;;;;11.43;6.85;;;;;;;;;;5062384;28;20021;-83
2023/07/25 11:45:02;;;;;;;12.00;8.20;;;;;;;;;;5058176;28;20103;-83
2023/07/25 11:47:28;;;;;;;12.02;7.43;;;;;;;;;;5056985;28;20362;-80
2023/07/25 11:49:55;;;;;;;8.27;6.32;;;;;;;;;;5057267;28;20021;-83
2023/07/25 11:52:21;;;;;;;8.18;6.68;;;;;;;;;;5056859;28;20044;-80
2023/07/25 11:54:47;;;;;;;13.40;6.82;;;;;;;;;;5022330;28;20021;-82
2023/07/25 11:57:13;;;;;;;9.73;6.30;;;;;;;;;;5054453;28;20028;-83
2023/07/25 11:59:40;;;;;;;10.30;6.65;;;;;;;;;;5053666;28;20021;-82
2023/07/25 12:02:06;;;;;;;;;;;;;;;;;;5054921;28;20112;-81
2023/07/25 12:04:32;;;;;;;11.53;7.83;;;;;;;;;;5053921;28;19920;-81
2023/07/25 12:06:59;;;;;;;8.75;7.10;;;;;;;;;;5053197;28;20109;-83
2023/07/25 12:09:29;;;;;;;6.90;6.18;;;;;;;;;;5035219;28;20028;-83
2023/07/25 12:11:55;;;;;;;10.88;9.48;;;;;;;;;;5034958;28;20500;-83
2023/07/25 12:14:22;;;;;;;11.32;7.05;;;;;;;;;;5035284;28;20064;-83
2023/07/25 12:16:48;;;;;;;9.65;5.97;;;;;;;;;;5052926;28;20025;-83
2023/07/25 12:19:15;;;;;;;7.07;5.88;;;;;;;;;;5034448;28;20160;-81
2023/07/25 12:21:42;;;;;;;13.30;8.50;;;;;;;;;;5035631;28;20482;-82
2023/07/25 12:24:09;;;;;;;9.25;6.60;;;;;;;;;;5054230;28;20104;-81
2023/07/25 12:26:45;;;;;;;12.60;8.10;;;;;;;;;;5036136;28;20033;-82
2023/07/25 12:29:18;;;;;;;13.53;7.17;;;;;;;;;;5039858;28;20100;-82
2023/07/25 12:31:44;;;;;;;11.50;7.25;;;;;;;;;;5036784;28;20367;-82
2023/07/25 12:34:18;;;;;;;7.50;6.47;;;;;;;;;;5056373;28;20082;-81
2023/07/25 12:36:44;;;;;;;9.68;7.53;;;;;;;;;;5045780;28;20359;-83
2023/07/25 12:39:10;;;;;;;10.63;7.27;;;;;;;;;;5031054;28;20051;-83
2023/07/25 12:41:37;;;;;;;13.53;6.30;;;;;;;;;;5052365;28;20520;-82
2023/07/25 12:44:04;;;;;;;12.63;7.10;;;;;;;;;;5051920;28;20033;-81
2023/07/25 12:46:31;;;;;;;10.73;6.68;;;;;;;;;;5034414;28;20021;-83
2023/07/25 12:48:57;;;;;;;10.80;7.25;;;;;;;;;;5053036;28;20032;-81
2023/07/25 12:51:23;;;;;;;11.40;7.28;;;28.10;54.60;;;;;;5035588;28;20080;-82
2023/07/25 12:53:49;;;;;;;16.88;11.63;;;26.70;62.30;;;;;;5052448;28;20057;-82
2023/07/25 12:56:15;;;;;;;11.35;7.30;;;26.30;63.40;;;;;;5051683;28;20021;-82